Terminal Aerodrome Forecast
Issued by NWS

Home | Current Version | Previous Version | Text Only | Print | Product List | Glossary On
Versions: 1 2 3 4 5 6 7 8 9 10 11 12 13 14 15 16 17 18 19 20 21 22 23 24 25 26 27 28 29 30 31 32 33 34 35 36
000
FTUS44 KOUN 042023 AAB
TAFWWR
TAF AMD
KWWR 042023Z 0420/0518 02020G25KT P6SM BKN030 OVC050
      TEMPO 0420/0423 3SM -SN BR OVC010
     FM050100 01009KT P6SM SCT015 OVC050
     FM050800 VRB05KT P6SM SCT050 BKN150=

USA.gov is the U.S. government's official web portal to all federal, state and local government web resources and services.